Time;durP1;ratioP1;P1;durP2;ratioP2;P2;SDS_P1;SDS_P2;PMS_P1;PMS_P2;Temp;Humidity;BMP_temperature;BMP_pressure;BME280_temperature;BME280_humidity;BME280_pressure;Samples;Min_cycle;Max_cycle;Signal;HPM_P1;HPM_P2
2021/03/01 00:00:35;;;;;;;30.38;18.73;;;;;;;;;;4987551;28;20212;-79
2021/03/01 00:03:01;;;;;;;39.05;19.67;;;;;;;;;;4987358;28;20180;-79
2021/03/01 00:05:27;;;;;;;33.40;19.02;;;;;;;;;;4987987;28;20188;-78
2021/03/01 00:07:53;;;;;;;35.15;18.55;;;;;;;;;;4987463;28;20180;-78
2021/03/01 00:10:19;;;;;;;29.45;17.35;;;;;;;;;;4987724;28;20238;-79
2021/03/01 00:12:45;;;;;;;25.63;15.93;;;;;;;;;;4987549;28;20239;-79
2021/03/01 00:15:13;;;;;;;26.42;17.50;;;;;;;;;;4970189;28;20211;-78
2021/03/01 00:17:40;;;;;;;20.95;14.55;;;;;;;;;;4985949;28;20187;-78
2021/03/01 00:20:07;;;;;;;21.17;13.98;;;;;;;;;;4987468;28;20208;-78
2021/03/01 00:22:33;;;;;;;19.42;14.20;;;;;;;;;;4986029;28;20259;-79
2021/03/01 00:24:59;;;;;;;20.80;13.45;;;;;;;;;;4987520;28;20195;-79
2021/03/01 00:27:25;;;;;;;19.38;14.05;;;;;;;;;;4986973;28;20180;-78
2021/03/01 00:29:51;;;;;;;15.90;12.43;;;;;;;;;;4970636;28;20226;-79
2021/03/01 00:32:17;;;;;;;21.30;13.43;;;;;;;;;;4987127;28;20664;-79
2021/03/01 00:34:43;;;;;;;19.15;12.80;;;;;;;;;;4985799;28;20195;-79
2021/03/01 00:37:09;;;;;;;19.95;12.25;;;;;;;;;;4979018;28;20184;-79
2021/03/01 00:39:35;;;;;;;15.40;11.20;;;;;;;;;;4969291;28;20204;-79
2021/03/01 00:42:01;;;;;;;19.38;11.43;;;;;;;;;;4987245;28;20186;-78
2021/03/01 00:44:27;;;;;;;18.50;13.23;;;;;;;;;;4986110;28;20572;-79
2021/03/01 00:46:53;;;;;;;16.65;11.50;;;;;;;;;;4986719;28;20212;-78
2021/03/01 00:49:19;;;;;;;19.02;12.80;;;;;;;;;;4985980;28;20199;-79
2021/03/01 00:51:45;;;;;;;16.65;11.35;;;;;;;;;;4966337;28;20223;-79
2021/03/01 00:54:11;;;;;;;18.08;12.10;;;;;;;;;;4986990;28;20187;-79
2021/03/01 00:56:37;;;;;;;14.73;11.20;;;;;;;;;;4985658;28;20179;-79
2021/03/01 00:59:04;;;;;;;14.55;11.07;;;;;;;;;;4974569;28;20192;-79
2021/03/01 01:01:30;;;;;;;14.88;10.10;;;;;;;;;;4965904;28;20192;-79
2021/03/01 01:03:56;;;;;;;16.02;11.55;;;;;;;;;;4985545;28;20274;-78
2021/03/01 01:06:22;;;;;;;14.85;10.57;;;;;;;;;;4986399;28;20180;-79
2021/03/01 01:08:47;;;;;;;17.10;11.48;;;;;;;;;;4987481;28;20644;-79
2021/03/01 01:11:14;;;;;;;16.55;10.20;;;;;;;;;;4985743;28;20215;-79
2021/03/01 01:13:40;;;;;;;11.98;9.70;;;;;;;;;;4986516;28;20184;-79
2021/03/01 01:16:06;;;;;;;17.02;10.77;;;;;;;;;;4986450;28;20537;-79
2021/03/01 01:18:32;;;;;;;16.85;9.70;;;;;;;;;;4969327;28;20198;-79
2021/03/01 01:20:58;;;;;;;14.73;9.65;;;;;;;;;;4969660;28;20210;-79
2021/03/01 01:23:24;;;;;;;15.50;10.93;;;;;;;;;;4985690;28;20188;-79
2021/03/01 01:25:50;;;;;;;11.75;9.15;;;;;;;;;;4985766;28;20180;-79
2021/03/01 01:28:16;;;;;;;13.32;9.70;;;;;;;;;;4986226;28;20188;-79
2021/03/01 01:30:42;;;;;;;14.07;9.90;;;;;;;;;;4968284;28;20196;-79
2021/03/01 01:33:08;;;;;;;13.90;9.63;;;;;;;;;;4986038;28;20233;-79
2021/03/01 01:35:34;;;;;;;13.30;9.43;;;;;;;;;;4986594;28;20278;-79
2021/03/01 01:38:00;;;;;;;14.57;8.82;;;;;;;;;;4985856;28;20204;-79
2021/03/01 01:40:26;;;;;;;14.82;9.35;;;;;;;;;;4965793;28;20215;-79
2021/03/01 01:42:53;;;;;;;12.60;9.40;;;;;;;;;;4985811;28;20182;-79
2021/03/01 01:45:20;;;;;;;18.80;11.57;;;;;;;;;;4985788;28;20178;-79
2021/03/01 01:47:48;;;;;;;12.48;9.55;;;;;;;;;;4984882;28;20220;-79
2021/03/01 01:50:14;;;;;;;12.52;9.32;;;;;;;;;;4965732;28;20194;-79
2021/03/01 01:52:40;;;;;;;14.93;9.40;;;;;;;;;;4984935;28;20216;-79
2021/03/01 01:55:07;;;;;;;15.60;8.93;;;;;;;;;;4985861;28;20187;-79
2021/03/01 01:57:34;;;;;;;12.60;8.35;;;;;;;;;;4986045;28;20195;-79
2021/03/01 01:59:59;;;;;;;18.13;9.20;;;;;;;;;;4986401;28;20564;-79
2021/03/01 02:02:26;;;;;;;16.42;9.98;;;;;;;;;;4985372;28;20192;-79
2021/03/01 02:04:54;;;;;;;8.15;6.97;;;;;;;;;;4965333;28;20194;-79
2021/03/01 02:07:23;;;;;;;11.48;7.97;;;;;;;;;;4985257;28;20200;-79
2021/03/01 02:09:58;;;;;;;14.07;8.93;;;;;;;;;;4985379;28;20243;-79
2021/03/01 02:12:39;;;;;;;14.73;9.25;;;;;;;;;;4985164;28;20179;-78
2021/03/01 02:15:09;;;;;;;12.68;8.20;;;;;;;;;;4980034;28;20175;-78
2021/03/01 02:17:35;;;;;;;14.27;9.43;;;;;;;;;;4985776;28;20242;-78
2021/03/01 02:20:03;;;;;;;13.75;9.65;;;;;;;;;;4965166;28;20207;-79
2021/03/01 02:22:29;;;;;;;9.52;7.47;;;;;;;;;;4964274;28;20223;-79
2021/03/01 02:25:05;;;;;;;11.38;8.07;;;;;;;;;;4965173;28;20187;-78
2021/03/01 02:27:32;;;;;;;13.35;8.45;;;;;;;;;;4967704;28;20184;-78
2021/03/01 02:30:01;;;;;;;15.90;9.25;;;;;;;;;;4968535;28;20630;-78
2021/03/01 02:32:30;;;;;;;10.02;8.25;;;;;;;;;;4969486;28;20188;-78
2021/03/01 02:34:57;;;;;;;15.63;9.88;;;;;;;;;;4985337;28;20192;-78
2021/03/01 02:37:25;;;;;;;11.05;7.90;;;;;;;;;;4964344;28;20196;-79
2021/03/01 02:39:51;;;;;;;14.30;8.50;;;;;;;;;;4984795;28;20254;-79
2021/03/01 02:42:20;;;;;;;15.40;9.30;;;;;;;;;;4985134;28;20230;-78
2021/03/01 02:44:47;;;;;;;13.88;9.38;;;;;;;;;;4966193;28;20179;-79
2021/03/01 02:47:13;;;;;;;13.50;9.10;;;;;;;;;;4984347;28;20227;-79
2021/03/01 02:49:40;;;;;;;10.93;8.20;;;;;;;;;;4984923;28;20207;-79
2021/03/01 02:52:06;;;;;;;13.25;8.60;;;;;;;;;;4984101;28;20196;-79
2021/03/01 02:54:33;;;;;;;10.60;7.45;;;;;;;;;;4967198;28;20302;-79
2021/03/01 02:57:00;;;;;;;10.85;7.57;;;;;;;;;;4985952;28;20207;-79
2021/03/01 02:59:27;;;;;;;11.45;8.20;;;;;;;;;;4984424;28;20219;-79
2021/03/01 03:01:54;;;;;;;9.80;7.47;;;;;;;;;;4984506;28;20183;-79
2021/03/01 03:04:21;;;;;;;9.57;6.78;;;;;;;;;;4964181;28;20184;-79
2021/03/01 03:06:47;;;;;;;16.55;9.23;;;;;;;;;;4984442;28;20247;-79
2021/03/01 03:09:13;;;;;;;15.27;8.13;;;;;;;;;;4967232;28;20186;-79
2021/03/01 03:11:41;;;;;;;12.00;7.18;;;;;;;;;;4967896;28;20176;-79
2021/03/01 03:14:08;;;;;;;11.68;8.80;;;;;;;;;;4971276;28;20609;-79
2021/03/01 03:16:34;;;;;;;12.40;7.95;;;;;;;;;;4964439;28;20184;-79
2021/03/01 03:19:01;;;;;;;10.52;7.40;;;;;;;;;;4984536;28;20645;-79
2021/03/01 03:21:27;;;;;;;9.93;6.60;;;;;;;;;;4984000;28;20215;-79
2021/03/01 03:23:57;;;;;;;11.68;7.32;;;;;;;;;;4983522;28;20213;-79
2021/03/01 03:26:23;;;;;;;10.95;8.05;;;;;;;;;;4989601;28;20823;-79
2021/03/01 03:28:49;;;;;;;12.10;8.40;;;;;;;;;;4990637;28;20184;-79
2021/03/01 03:31:15;;;;;;;11.77;7.78;;;;;;;;;;4990732;28;20199;-79
2021/03/01 03:33:41;;;;;;;11.27;7.65;;;;;;;;;;4972589;28;20219;-79
2021/03/01 03:36:08;;;;;;;14.73;9.38;;;;;;;;;;4973202;28;20200;-79
2021/03/01 03:38:43;;;;;;;12.95;7.35;;;;;;;;;;4988464;28;20183;-79
2021/03/01 03:41:11;;;;;;;9.85;6.82;;;;;;;;;;4991014;28;20238;-79
2021/03/01 03:43:39;;;;;;;14.15;7.82;;;;;;;;;;4990369;28;20195;-79
2021/03/01 03:46:05;;;;;;;10.65;7.65;;;;;;;;;;4970402;28;20290;-79
2021/03/01 03:48:31;;;;;;;14.88;7.57;;;;;;;;;;4990273;28;20234;-79
2021/03/01 03:51:00;;;;;;;9.38;6.82;;;;;;;;;;4991839;28;20206;-79
2021/03/01 03:53:28;;;;;;;10.88;7.65;;;;;;;;;;4969923;28;20246;-79
2021/03/01 03:55:59;;;;;;;11.35;7.18;;;;;;;;;;4970422;28;20286;-79
2021/03/01 03:58:27;;;;;;;10.90;6.60;;;;;;;;;;4990431;28;20187;-79
2021/03/01 04:00:55;;;;;;;9.45;7.47;;;;;;;;;;4990557;28;20218;-79
2021/03/01 04:03:25;;;;;;;11.35;7.47;;;;;;;;;;4972690;28;20179;-79
2021/03/01 04:05:53;;;;;;;11.48;7.03;;;;;;;;;;4991240;28;20172;-79
2021/03/01 04:08:19;;;;;;;8.48;6.95;;;;;;;;;;4990197;28;20194;-79
2021/03/01 04:10:47;;;;;;;15.52;7.45;;;;;;;;;;4990483;28;20187;-79
2021/03/01 04:13:13;;;;;;;11.82;8.68;;;;;;;;;;4969963;28;20419;-79
2021/03/01 04:15:44;;;;;;;12.18;7.75;;;;;;;;;;4990551;28;20183;-79
2021/03/01 04:18:10;;;;;;;12.30;6.97;;;;;;;;;;4987674;28;20184;-79
2021/03/01 04:20:37;;;;;;;11.85;7.50;;;;;;;;;;4990616;28;20207;-79
2021/03/01 04:23:03;;;;;;;11.25;7.75;;;;;;;;;;4988618;28;20234;-79
2021/03/01 04:25:30;;;;;;;14.65;7.65;;;;;;;;;;4982101;28;20259;-79
2021/03/01 04:27:57;;;;;;;11.32;7.40;;;;;;;;;;4970219;28;20173;-79
2021/03/01 04:30:23;;;;;;;10.98;7.00;;;;;;;;;;4972876;28;20180;-79
2021/03/01 04:32:50;;;;;;;11.85;8.15;;;;;;;;;;4989788;28;20175;-79
2021/03/01 04:35:17;;;;;;;11.38;7.15;;;;;;;;;;4975675;28;20195;-79
2021/03/01 04:37:43;;;;;;;14.40;7.45;;;;;;;;;;4986683;28;20289;-79
2021/03/01 04:40:10;;;;;;;10.27;7.60;;;;;;;;;;4966986;28;20685;-79
2021/03/01 04:42:36;;;;;;;12.57;7.97;;;;;;;;;;4969624;28;20662;-79
2021/03/01 04:45:03;;;;;;;12.10;7.68;;;;;;;;;;4983759;28;20175;-79
2021/03/01 04:47:29;;;;;;;13.50;7.85;;;;;;;;;;4966341;28;20232;-79
2021/03/01 04:49:56;;;;;;;11.50;7.43;;;;;;;;;;4986672;28;20646;-79
2021/03/01 04:52:22;;;;;;;11.10;7.70;;;;;;;;;;4987192;28;20188;-79
2021/03/01 04:54:49;;;;;;;9.75;7.63;;;;;;;;;;4966415;28;20666;-79
2021/03/01 04:57:16;;;;;;;9.68;6.72;;;;;;;;;;4987176;28;20171;-79
2021/03/01 04:59:43;;;;;;;10.35;6.65;;;;;;;;;;4987569;28;20428;-79
2021/03/01 05:02:09;;;;;;;9.52;6.55;;;;;;;;;;4966656;28;20195;-79
2021/03/01 05:04:35;;;;;;;11.85;8.05;;;;;;;;;;4986221;28;20179;-79
2021/03/01 05:07:01;;;;;;;14.23;8.40;;;;;;;;;;4986600;28;20275;-79
2021/03/01 05:09:28;;;;;;;10.63;7.65;;;;;;;;;;4986704;28;20207;-79
2021/03/01 05:11:54;;;;;;;9.68;7.28;;;;;;;;;;4987373;28;20657;-79
2021/03/01 05:14:20;;;;;;;11.65;8.05;;;;;;;;;;4966496;28;20179;-79
2021/03/01 05:16:46;;;;;;;11.40;6.95;;;;;;;;;;4965677;28;20590;-79
2021/03/01 05:19:11;;;;;;;11.88;7.47;;;;;;;;;;4986374;28;20191;-79
2021/03/01 05:21:37;;;;;;;11.93;7.97;;;;;;;;;;4986455;28;20207;-79
2021/03/01 05:24:04;;;;;;;10.77;7.23;;;;;;;;;;4987007;28;20546;-79
2021/03/01 05:26:30;;;;;;;10.55;7.32;;;;;;;;;;4986379;28;20439;-79
2021/03/01 05:28:56;;;;;;;8.75;6.90;;;;;;;;;;4966100;28;20180;-79
2021/03/01 05:31:23;;;;;;;9.35;7.68;;;;;;;;;;4966172;28;20210;-79
2021/03/01 05:33:49;;;;;;;9.85;7.47;;;;;;;;;;4985747;28;20444;-79
2021/03/01 05:36:15;;;;;;;12.80;7.25;;;;;;;;;;4969009;28;20172;-79
2021/03/01 05:38:41;;;;;;;12.43;7.13;;;;;;;;;;4987050;28;20266;-79
2021/03/01 05:41:08;;;;;;;9.48;7.00;;;;;;;;;;4965837;28;20212;-79
2021/03/01 05:43:34;;;;;;;12.32;7.82;;;;;;;;;;4985775;28;20543;-79
2021/03/01 05:46:01;;;;;;;11.93;7.72;;;;;;;;;;4985525;28;20185;-79
2021/03/01 05:48:28;;;;;;;11.77;6.75;;;;;;;;;;4968445;28;20227;-79
2021/03/01 05:50:58;;;;;;;12.00;7.38;;;;;;;;;;4986718;28;20183;-79
2021/03/01 05:53:31;;;;;;;9.90;7.05;;;;;;;;;;4985523;28;20199;-79
2021/03/01 05:56:00;;;;;;;7.80;5.95;;;;;;;;;;4965301;28;20191;-79
2021/03/01 05:58:30;;;;;;;10.57;6.85;;;;;;;;;;4985907;28;20645;-79
2021/03/01 06:01:00;;;;;;;10.20;8.35;;;;;;;;;;4965497;28;20388;-79
2021/03/01 06:03:28;;;;;;;12.00;7.15;;;;;;;;;;4967933;28;20169;-79
2021/03/01 06:05:54;;;;;;;12.38;7.70;;;;;;;;;;4986662;28;20183;-79
2021/03/01 06:08:20;;;;;;;10.07;6.82;;;;;;;;;;4985462;28;20246;-79
2021/03/01 06:10:46;;;;;;;10.95;7.32;;;;;;;;;;4985392;28;20180;-79
2021/03/01 06:13:12;;;;;;;11.80;7.60;;;;;;;;;;4985343;28;20661;-79
2021/03/01 06:15:38;;;;;;;11.98;8.07;;;;;;;;;;4984484;28;20251;-79
2021/03/01 06:18:05;;;;;;;10.02;6.82;;;;;;;;;;4986579;28;20176;-79
2021/03/01 06:20:31;;;;;;;14.75;8.02;;;;;;;;;;4966679;28;20215;-80
2021/03/01 06:22:57;;;;;;;11.68;7.45;;;;;;;;;;4964985;28;20191;-79
2021/03/01 06:25:23;;;;;;;14.32;7.20;;;;;;;;;;4984952;28;20192;-79
2021/03/01 06:27:53;;;;;;;11.45;7.65;;;;;;;;;;4965073;28;20185;-79
2021/03/01 06:30:20;;;;;;;10.20;6.97;;;;;;;;;;4984911;28;20180;-79
2021/03/01 06:33:03;;;;;;;11.70;7.53;;;;;;;;;;4983913;28;20192;-79
2021/03/01 06:35:30;;;;;;;10.07;6.20;;;;;;;;;;4964656;28;20645;-80
2021/03/01 06:38:15;;;;;;;9.98;6.85;;;;;;;;;;4984692;28;20192;-79
2021/03/01 06:40:41;;;;;;;8.55;6.45;;;;;;;;;;4984482;28;20203;-80
2021/03/01 06:43:14;;;;;;;10.52;7.13;;;;;;;;;;4985105;28;20587;-79
2021/03/01 06:45:40;;;;;;;15.57;7.63;;;;;;;;;;4969558;28;20179;-80
2021/03/01 06:48:06;;;;;;;12.15;7.68;;;;;;;;;;4985301;28;20250;-80
2021/03/01 06:50:33;;;;;;;13.65;8.57;;;;;;;;;;4985746;28;20533;-80
2021/03/01 06:53:00;;;;;;;11.05;8.60;;;;;;;;;;4984605;28;20194;-80
2021/03/01 06:55:26;;;;;;;12.00;7.63;;;;;;;;;;4964195;28;20192;-80
2021/03/01 06:57:52;;;;;;;12.98;9.07;;;;;;;;;;4964803;28;20177;-80
2021/03/01 07:00:28;;;;;;;9.63;7.32;;;;;;;;;;4984080;28;20208;-79
2021/03/01 07:02:55;;;;;;;11.85;8.70;;;;;;;;;;4966961;28;20179;-80
2021/03/01 07:05:21;;;;;;;12.32;8.73;;;;;;;;;;4963916;28;20251;-80
2021/03/01 07:07:47;;;;;;;15.85;8.27;;;;;;;;;;4984263;28;20649;-80
2021/03/01 07:10:13;;;;;;;18.17;9.52;;;;;;;;;;4964445;28;20187;-80
2021/03/01 07:12:44;;;;;;;12.75;9.63;;;;;;;;;;4983975;28;20187;-80
2021/03/01 07:15:11;;;;;;;13.35;9.00;;;;;;;;;;4966909;28;20242;-80
2021/03/01 07:17:39;;;;;;;21.10;8.82;;;;;;;;;;4985223;28;20187;-80
2021/03/01 07:20:06;;;;;;;15.02;10.25;;;;;;;;;;4963771;28;20203;-80
2021/03/01 07:22:32;;;;;;;17.35;10.02;;;;;;;;;;4983224;28;20191;-80
2021/03/01 07:24:58;;;;;;;13.27;8.20;;;;;;;;;;4984182;28;20187;-80
2021/03/01 07:27:27;;;;;;;12.90;9.40;;;;;;;;;;4966744;28;20179;-80
2021/03/01 07:29:56;;;;;;;16.63;9.48;;;;;;;;;;4985233;28;20182;-80
2021/03/01 07:32:23;;;;;;;16.45;9.93;;;;;;;;;;4964391;28;20191;-80
2021/03/01 07:34:50;;;;;;;16.75;9.45;;;;;;;;;;4963827;28;20219;-80
2021/03/01 07:37:16;;;;;;;14.85;10.05;;;;;;;;;;4984075;28;20195;-79
2021/03/01 07:39:42;;;;;;;12.30;9.20;;;;;;;;;;4982959;28;20246;-80
2021/03/01 07:42:11;;;;;;;23.77;11.35;;;;;;;;;;4984484;28;20235;-80
2021/03/01 07:44:37;;;;;;;15.85;10.93;;;;;;;;;;4966871;28;20530;-80
2021/03/01 07:47:04;;;;;;;16.10;11.05;;;;;;;;;;4971770;28;20940;-80
2021/03/01 07:49:35;;;;;;;14.70;11.15;;;;;;;;;;4984419;28;20205;-80
2021/03/01 07:52:01;;;;;;;14.45;10.55;;;;;;;;;;4984036;28;20195;-80
2021/03/01 07:54:46;;;;;;;17.23;11.23;;;;;;;;;;4966742;28;20195;-80
2021/03/01 07:57:12;;;;;;;19.00;10.55;;;;;;;;;;4980066;28;20610;-80
2021/03/01 07:59:38;;;;;;;21.92;11.48;;;;;;;;;;4983222;28;20227;-80
2021/03/01 08:02:11;;;;;;;16.58;11.60;;;;;;;;;;4984062;28;20187;-80
2021/03/01 08:04:37;;;;;;;19.42;11.13;;;;;;;;;;4984049;28;20634;-79
2021/03/01 08:07:03;;;;;;;20.58;11.25;;;;;;;;;;4984136;28;20219;-80
2021/03/01 08:09:40;;;;;;;20.70;12.07;;;;;;;;;;4983668;28;20196;-80
2021/03/01 08:12:06;;;;;;;18.65;10.32;;;;;;;;;;4981812;28;20175;-80
2021/03/01 08:14:51;;;;;;;17.25;11.30;;;;;;;;;;4987994;28;20194;-80
2021/03/01 08:17:26;;;;;;;18.08;11.23;;;;;;;;;;4987227;28;20183;-80
2021/03/01 08:19:53;;;;;;;16.90;12.10;;;;;;;;;;4986363;28;20203;-80
2021/03/01 08:22:19;;;;;;;18.75;11.65;;;;;;;;;;4987356;28;20188;-80
2021/03/01 08:24:55;;;;;;;21.27;12.55;;;;;;;;;;4985932;28;20187;-79
2021/03/01 08:27:27;;;;;;;21.70;12.32;;;;;;;;;;4969962;28;20234;-79
2021/03/01 08:30:11;;;;;;;25.52;12.07;;;;;;;;;;4969547;28;20194;-80
2021/03/01 08:32:37;;;;;;;23.85;12.65;;;;;;;;;;4984742;28;20238;-80
2021/03/01 08:35:22;;;;;;;27.90;12.63;;;;;;;;;;4987038;28;20191;-79
2021/03/01 08:37:49;;;;;;;20.40;11.35;;;;;;;;;;4985719;28;20215;-80
2021/03/01 08:40:22;;;;;;;18.75;12.43;;;;;;;;;;4978671;28;20219;-79
2021/03/01 08:42:55;;;;;;;23.90;12.23;;;;;;;;;;4967155;28;20204;-80
2021/03/01 08:45:41;;;;;;;19.42;11.60;;;;;;;;;;4969523;28;20183;-79
2021/03/01 08:48:08;;;;;;;16.17;11.50;;;;;;;;;;4982895;28;20251;-79
2021/03/01 08:50:39;;;;;;;18.55;12.25;;;;;;;;;;4987706;28;20179;-79
2021/03/01 08:53:05;;;;;;;19.98;12.05;;;;;;;;;;4986282;28;20199;-79
2021/03/01 08:55:33;;;;;;;22.40;11.48;;;;;;;;;;4984982;28;20190;-79
2021/03/01 08:58:05;;;;;;;19.50;13.27;;;;;;;;;;4986724;28;20195;-79
2021/03/01 09:00:33;;;;;;;17.90;10.88;;;;;;;;;;4986716;28;20227;-80
2021/03/01 09:03:09;;;;;;;16.88;10.80;;;;;;;;;;4988060;28;20246;-79
2021/03/01 09:05:35;;;;;;;15.95;10.35;;;;;;;;;;4985554;28;20214;-79
2021/03/01 09:08:01;;;;;;;22.02;11.57;;;;;;;;;;4974528;28;20691;-80
2021/03/01 09:10:46;;;;;;;16.15;11.88;;;;;;;;;;4986544;28;20211;-80
2021/03/01 09:13:22;;;;;;;17.88;11.65;;;;;;;;;;4985177;28;20214;-80
2021/03/01 09:15:48;;;;;;;15.82;10.68;;;;;;;;;;4966138;28;20196;-80
2021/03/01 09:18:15;;;;;;;18.20;12.13;;;;;;;;;;4969683;28;20172;-80
2021/03/01 09:20:53;;;;;;;19.33;12.00;;;;;;;;;;4969337;28;20232;-79
2021/03/01 09:23:36;;;;;;;21.33;11.95;;;;;;;;;;4971721;28;20188;-80
2021/03/01 09:26:03;;;;;;;17.67;11.38;;;;;;;;;;4986021;28;20187;-80
2021/03/01 09:28:31;;;;;;;20.17;11.05;;;;;;;;;;4985037;28;20190;-80
2021/03/01 09:31:01;;;;;;;19.85;12.63;;;;;;;;;;4986300;28;20234;-79
2021/03/01 09:33:30;;;;;;;17.00;10.90;;;;;;;;;;4986698;28;20195;-80
2021/03/01 09:35:56;;;;;;;21.25;11.18;;;;;;;;;;4985278;28;20187;-81
2021/03/01 09:38:22;;;;;;;15.93;11.32;;;;;;;;;;4971113;28;20192;-81
2021/03/01 09:40:55;;;;;;;19.83;11.75;;;;;;;;;;4966241;28;20235;-80
2021/03/01 09:43:23;;;;;;;16.17;12.38;;;;;;;;;;4985939;28;20254;-80
2021/03/01 09:45:50;;;;;;;16.30;11.38;;;;;;;;;;4985645;28;20176;-79
2021/03/01 09:48:16;;;;;;;26.90;13.15;;;;;;;;;;4968689;28;20219;-80
2021/03/01 09:50:42;;;;;;;16.33;11.25;;;;;;;;;;4986962;28;20187;-79
2021/03/01 09:53:08;;;;;;;18.73;11.77;;;;;;;;;;4985399;28;20463;-80
2021/03/01 09:55:34;;;;;;;17.45;11.18;;;;;;;;;;4985755;28;20247;-80
2021/03/01 09:58:00;;;;;;;19.38;11.90;;;;;;;;;;4985324;28;20356;-80
2021/03/01 10:00:28;;;;;;;19.10;11.10;;;;;;;;;;4968673;28;20199;-80
2021/03/01 10:02:58;;;;;;;17.88;12.80;;;;;;;;;;4985240;28;20179;-80
2021/03/01 10:05:24;;;;;;;18.92;12.80;;;;;;;;;;4985517;28;20179;-81
2021/03/01 10:07:55;;;;;;;14.98;10.70;;;;;;;;;;4984631;28;20183;-80
2021/03/01 10:10:21;;;;;;;17.83;12.52;;;;;;;;;;4985741;28;20243;-80
2021/03/01 10:12:47;;;;;;;21.33;13.02;;;;;;;;;;4984225;28;20255;-79
2021/03/01 10:15:14;;;;;;;21.05;11.95;;;;;;;;;;4968278;28;20176;-80
2021/03/01 10:17:40;;;;;;;18.33;11.95;;;;;;;;;;4983367;28;20207;-81
2021/03/01 10:20:07;;;;;;;18.58;11.05;;;;;;;;;;4984903;28;20214;-81
2021/03/01 10:22:52;;;;;;;20.15;11.25;;;;;;;;;;4984148;28;20275;-82
2021/03/01 10:25:27;;;;;;;19.25;11.90;;;;;;;;;;4965489;28;20183;-80
2021/03/01 10:27:53;;;;;;;19.65;12.55;;;;;;;;;;4983544;28;20267;-80
2021/03/01 10:30:19;;;;;;;20.27;12.50;;;;;;;;;;4968298;28;20179;-79
2021/03/01 10:32:45;;;;;;;19.50;14.02;;;;;;;;;;4985821;28;20186;-81
2021/03/01 10:35:18;;;;;;;18.95;12.38;;;;;;;;;;4982621;28;20187;-80
2021/03/01 10:38:04;;;;;;;17.35;12.77;;;;;;;;;;4975179;28;20184;-80
2021/03/01 10:40:30;;;;;;;14.75;12.13;;;;;;;;;;4984939;28;20207;-80
2021/03/01 10:42:56;;;;;;;14.93;11.15;;;;;;;;;;4985281;28;20180;-79
2021/03/01 10:45:22;;;;;;;22.27;12.30;;;;;;;;;;4984955;28;20175;-80
2021/03/01 10:48:01;;;;;;;18.92;12.73;;;;;;;;;;4984522;28;20311;-80
2021/03/01 10:50:27;;;;;;;17.50;12.13;;;;;;;;;;4969235;28;20206;-80
2021/03/01 10:52:53;;;;;;;20.73;12.90;;;;;;;;;;4964935;28;20198;-80
2021/03/01 10:55:19;;;;;;;19.52;12.73;;;;;;;;;;4983306;28;20186;-80
2021/03/01 10:57:45;;;;;;;19.45;12.50;;;;;;;;;;4966597;28;20180;-80
2021/03/01 11:00:12;;;;;;;21.02;13.02;;;;;;;;;;4985051;28;20200;-78
2021/03/01 11:02:37;;;;;;;27.85;11.77;;;;;;;;;;4985326;28;20183;-80
2021/03/01 11:05:04;;;;;;;17.00;11.37;;;;;;;;;;4984611;28;20188;-80
2021/03/01 11:07:30;;;;;;;20.65;12.13;;;;;;;;;;4984248;28;20497;-80
2021/03/01 11:09:56;;;;;;;22.95;12.55;;;;;;;;;;4983323;28;20183;-82
2021/03/01 11:12:22;;;;;;;16.90;11.93;;;;;;;;;;4985132;28;20172;-79
2021/03/01 11:14:48;;;;;;;22.83;11.30;;;;;;;;;;4984171;28;20218;-81
2021/03/01 11:17:14;;;;;;;19.25;11.75;;;;;;;;;;4970482;28;20800;-80
2021/03/01 11:19:40;;;;;;;15.93;11.02;;;;;;;;;;4963911;28;20227;-81
2021/03/01 11:22:06;;;;;;;18.48;13.43;;;;;;;;;;4984185;28;20372;-80
2021/03/01 11:24:32;;;;;;;20.30;14.50;;;;;;;;;;4984436;28;20214;-80
2021/03/01 11:26:58;;;;;;;14.88;11.05;;;;;;;;;;4984021;28;20649;-80
2021/03/01 11:29:24;;;;;;;20.70;12.15;;;;;;;;;;4983928;28;20190;-80
2021/03/01 11:31:51;;;;;;;19.70;13.97;;;;;;;;;;4984626;28;20176;-80
2021/03/01 11:34:17;;;;;;;20.25;11.57;;;;;;;;;;4982565;28;20522;-80
2021/03/01 11:36:43;;;;;;;18.60;13.95;;;;;;;;;;4965952;28;20596;-81
2021/03/01 11:39:10;;;;;;;19.13;12.87;;;;;;;;;;4984519;28;20195;-79
2021/03/01 11:41:38;;;;;;;21.15;12.82;;;;;;;;;;4967403;28;20419;-80
2021/03/01 11:44:04;;;;;;;19.33;11.88;;;;;;;;;;4984119;28;20207;-80
2021/03/01 11:46:30;;;;;;;17.95;12.43;;;;;;;;;;4985217;28;20574;-81
2021/03/01 11:48:56;;;;;;;18.07;13.17;;;;;;;;;;4987496;28;20194;-79
2021/03/01 11:51:22;;;;;;;20.35;13.07;;;;;;;;;;4988119;28;20502;-83
2021/03/01 11:53:48;;;;;;;14.90;10.83;;;;;;;;;;4987755;28;20184;-80
2021/03/01 11:56:15;;;;;;;19.27;12.50;;;;;;;;;;4988073;28;20481;-80
2021/03/01 11:58:41;;;;;;;16.48;12.07;;;;;;;;;;4987603;28;20188;-81
2021/03/01 12:01:08;;;;;;;21.08;12.38;;;;;;;;;;4988418;28;20715;-80
2021/03/01 12:03:34;;;;;;;17.58;11.68;;;;;;;;;;4987564;28;20188;-80
2021/03/01 12:06:00;;;;;;;16.52;11.77;;;;;;;;;;4988631;28;20240;-81
2021/03/01 12:08:26;;;;;;;14.95;10.85;;;;;;;;;;4987533;28;20203;-80
2021/03/01 12:10:53;;;;;;;16.88;11.75;;;;;;;;;;4987587;28;20187;-81
2021/03/01 12:13:19;;;;;;;18.98;12.40;;;;;;;;;;4987546;28;20185;-81
2021/03/01 12:15:45;;;;;;;17.77;12.70;;;;;;;;;;4987535;28;20188;-80
2021/03/01 12:18:11;;;;;;;19.05;11.50;;;;;;;;;;4987491;28;20174;-81
2021/03/01 12:20:37;;;;;;;15.98;13.05;;;;;;;;;;4986652;28;20683;-81
2021/03/01 12:23:03;;;;;;;17.85;12.25;;;;;;;;;;4975281;28;20295;-80
2021/03/01 12:25:29;;;;;;;17.05;12.60;;;;;;;;;;4987478;28;20184;-85
2021/03/01 12:27:55;;;;;;;16.23;12.00;;;;;;;;;;4987094;28;20589;-81
2021/03/01 12:30:21;;;;;;;17.63;12.00;;;;;;;;;;4988081;28;20416;-80
2021/03/01 12:32:47;;;;;;;19.40;11.77;;;;;;;;;;4985779;28;20491;-80
2021/03/01 12:35:14;;;;;;;14.93;11.57;;;;;;;;;;4987155;28;20199;-82
2021/03/01 12:37:40;;;;;;;21.67;12.95;;;;;;;;;;4985731;28;20215;-80
2021/03/01 12:40:07;;;;;;;15.27;11.50;;;;;;;;;;4979172;28;20222;-81
2021/03/01 12:42:33;;;;;;;18.17;11.90;;;;;;;;;;4987318;28;20187;-80
2021/03/01 12:45:00;;;;;;;16.80;11.95;;;;;;;;;;4986694;28;20214;-85
2021/03/01 12:47:26;;;;;;;15.63;11.93;;;;;;;;;;4986400;28;20246;-82
2021/03/01 12:49:52;;;;;;;19.93;12.93;;;;;;;;;;4985788;28;20215;-80
2021/03/01 12:52:18;;;;;;;19.83;13.30;;;;;;;;;;4987252;28;20465;-81
2021/03/01 12:54:44;;;;;;;18.55;11.93;;;;;;;;;;4985691;28;20759;-80
2021/03/01 12:57:11;;;;;;;19.20;12.77;;;;;;;;;;4969630;28;20487;-81
2021/03/01 12:59:37;;;;;;;19.60;11.48;;;;;;;;;;4968370;28;20454;-82
2021/03/01 13:02:06;;;;;;;14.05;11.32;;;;;;;;;;4986731;28;20319;-81
2021/03/01 13:04:32;;;;;;;19.80;12.68;;;;;;;;;;4985442;28;20183;-81
2021/03/01 13:07:01;;;;;;;17.15;12.98;;;;;;;;;;4986706;28;20281;-80
2021/03/01 13:09:28;;;;;;;17.70;11.68;;;;;;;;;;4986336;28;20203;-81
2021/03/01 13:11:54;;;;;;;16.55;12.32;;;;;;;;;;4986282;28;20179;-83
2021/03/01 13:14:20;;;;;;;18.88;12.60;;;;;;;;;;4986417;28;20193;-80
2021/03/01 13:16:46;;;;;;;16.70;12.02;;;;;;;;;;4984892;28;20307;-80
2021/03/01 13:19:12;;;;;;;15.20;11.47;;;;;;;;;;4977997;28;20190;-80
2021/03/01 13:21:38;;;;;;;16.05;11.90;;;;;;;;;;4968802;28;20437;-81
2021/03/01 13:24:04;;;;;;;16.25;11.60;;;;;;;;;;4986057;28;20489;-80
2021/03/01 13:26:30;;;;;;;14.60;11.35;;;;;;;;;;4986155;28;20180;-80
2021/03/01 13:28:57;;;;;;;19.58;12.50;;;;;;;;;;4985371;28;20199;-82
2021/03/01 13:31:23;;;;;;;15.50;11.57;;;;;;;;;;4986042;28;20217;-79
2021/03/01 13:33:49;;;;;;;16.20;12.00;;;;;;;;;;4985178;28;20206;-80
2021/03/01 13:36:15;;;;;;;17.30;11.20;;;;;;;;;;4969000;28;20649;-80
2021/03/01 13:38:41;;;;;;;14.73;11.60;;;;;;;;;;4968957;28;20435;-81
2021/03/01 13:41:07;;;;;;;17.27;12.03;;;;;;;;;;4973651;28;20466;-81
2021/03/01 13:43:33;;;;;;;14.63;10.73;;;;;;;;;;4965536;28;20446;-81
2021/03/01 13:45:59;;;;;;;16.15;11.80;;;;;;;;;;4984686;28;20191;-80
2021/03/01 13:48:25;;;;;;;18.98;12.75;;;;;;;;;;4967818;28;20225;-80
2021/03/01 13:50:51;;;;;;;17.48;12.13;;;;;;;;;;4987013;28;20177;-81
2021/03/01 13:53:17;;;;;;;14.90;12.30;;;;;;;;;;4984171;28;20183;-80
2021/03/01 13:55:43;;;;;;;13.20;11.43;;;;;;;;;;4985882;28;20468;-80
2021/03/01 13:58:09;;;;;;;15.87;12.17;;;;;;;;;;4983761;28;20187;-80
2021/03/01 14:00:35;;;;;;;16.55;11.80;;;;;;;;;;4985632;28;20463;-80
2021/03/01 14:03:01;;;;;;;15.80;12.37;;;;;;;;;;4985154;28;20171;-80
2021/03/01 14:05:27;;;;;;;12.73;10.77;;;;;;;;;;4970641;28;20454;-81
2021/03/01 14:07:53;;;;;;;17.00;12.37;;;;;;;;;;4985181;28;20446;-81
2021/03/01 14:10:21;;;;;;;17.67;11.67;;;;;;;;;;4985274;28;20442;-80
2021/03/01 14:12:47;;;;;;;18.20;12.43;;;;;;;;;;4985279;28;20442;-81
2021/03/01 14:15:13;;;;;;;15.67;11.83;;;;;;;;;;4985360;28;20259;-81
2021/03/01 14:17:39;;;;;;;16.17;11.43;;;;;;;;;;4985829;28;20494;-80
2021/03/01 14:20:06;;;;;;;16.10;11.60;;;;;;;;;;4985322;28;20207;-80
2021/03/01 14:22:32;;;;;;;15.50;11.50;;;;;;;;;;4985020;28;20220;-80
2021/03/01 14:24:59;;;;;;;16.40;12.90;;;;;;;;;;4985529;28;20733;-80